Time,TemperatureF,DewpointF,PressureIn,WindDirection,WindDirectionDegrees,WindSpeedMPH,WindSpeedGustMPH,Humidity,HourlyPrecipIn,Conditions,Clouds,dailyrainin,SoftwareType,DateUTC
2013-11-17 00:01:00,43.4,40.4,29.21,South,180,8.1,9.6,89,0.00,,,0.00,WUHU216HW,2013-11-17 06:01:00,
2013-11-17 00:06:00,43.4,40.4,29.21,SSW,203,8.7,9.6,89,0.00,,,0.00,WUHU216HW,2013-11-17 06:06:00,
2013-11-17 00:11:00,43.2,39.9,29.21,SSW,203,9.2,9.2,88,0.00,,,0.00,WUHU216HW,2013-11-17 06:11:00,
2013-11-17 00:17:00,43.0,39.7,29.21,South,180,8.5,9.2,88,0.00,,,0.00,WUHU216HW,2013-11-17 06:17:00,
2013-11-17 00:22:00,42.8,39.5,29.22,South,180,8.7,9.2,88,0.00,,,0.00,WUHU216HW,2013-11-17 06:22:00,
2013-11-17 00:27:00,42.7,39.3,29.21,South,180,8.5,9.4,88,0.00,,,0.00,WUHU216HW,2013-11-17 06:27:00,
2013-11-17 00:32:00,42.5,39.2,29.21,South,180,7.4,9.4,88,0.00,,,0.00,WUHU216HW,2013-11-17 06:32:00,
2013-11-17 00:37:00,42.5,38.9,29.21,South,180,8.7,8.9,87,0.00,,,0.00,WUHU216HW,2013-11-17 06:37:00,
2013-11-17 00:42:00,42.7,39.1,29.20,SSW,203,8.1,9.8,87,0.00,,,0.00,WUHU216HW,2013-11-17 06:42:00,
2013-11-17 00:47:00,42.7,38.7,29.20,SSW,203,6.3,9.8,86,0.00,,,0.00,WUHU216HW,2013-11-17 06:47:00,
2013-11-17 00:52:00,42.3,38.3,29.20,SSW,203,7.4,8.3,86,0.00,,,0.00,WUHU216HW,2013-11-17 06:52:00,
2013-11-17 00:58:00,42.3,38.3,29.20,SSW,203,8.1,8.3,86,0.00,,,0.00,WUHU216HW,2013-11-17 06:58:00,
2013-11-17 01:03:00,42.1,38.2,29.20,SSW,203,8.5,10.1,86,0.00,,,0.00,WUHU216HW,2013-11-17 07:03:00,
2013-11-17 01:08:00,42.1,38.2,29.20,SSW,203,7.6,10.1,86,0.00,,,0.00,WUHU216HW,2013-11-17 07:08:00,
2013-11-17 01:13:00,42.1,38.2,29.20,SSW,203,8.1,10.1,86,0.00,,,0.00,WUHU216HW,2013-11-17 07:13:00,
2013-11-17 01:18:00,41.9,38.0,29.20,SSW,203,8.3,8.3,86,0.00,,,0.00,WUHU216HW,2013-11-17 07:18:00,
2013-11-17 01:23:00,41.8,37.8,29.20,SW,225,5.6,8.3,86,0.00,,,0.00,WUHU216HW,2013-11-17 07:23:00,
2013-11-17 01:28:00,41.4,37.8,29.20,SW,225,6.3,7.2,87,0.00,,,0.00,WUHU216HW,2013-11-17 07:28:00,
2013-11-17 01:33:00,41.2,37.6,29.20,SW,225,6.5,6.9,87,0.00,,,0.00,WUHU216HW,2013-11-17 07:33:00,
2013-11-17 01:38:00,41.0,37.5,29.20,SW,225,5.4,7.2,87,0.00,,,0.00,WUHU216HW,2013-11-17 07:38:00,
2013-11-17 01:43:00,40.9,37.3,29.20,SW,225,6.3,7.2,87,0.00,,,0.00,WUHU216HW,2013-11-17 07:43:00,
2013-11-17 01:48:00,40.7,37.4,29.21,SW,225,7.2,7.2,88,0.00,,,0.00,WUHU216HW,2013-11-17 07:48:00,
2013-11-17 01:53:00,40.5,37.2,29.21,SW,225,5.6,7.4,88,0.00,,,0.00,WUHU216HW,2013-11-17 07:53:00,
2013-11-17 01:58:00,40.5,37.2,29.21,SW,225,6.0,7.6,88,0.00,,,0.00,WUHU216HW,2013-11-17 07:58:00,
2013-11-17 02:03:00,40.3,37.0,29.21,SW,225,5.1,7.6,88,0.00,,,0.00,WUHU216HW,2013-11-17 08:03:00,
2013-11-17 02:08:00,40.1,37.2,29.21,SW,225,6.5,6.5,89,0.00,,,0.00,WUHU216HW,2013-11-17 08:08:00,
2013-11-17 02:13:00,40.0,37.0,29.21,SW,225,5.6,6.5,89,0.00,,,0.00,WUHU216HW,2013-11-17 08:13:00,
2013-11-17 02:18:00,40.0,37.0,29.20,SW,225,5.4,6.5,89,0.00,,,0.00,WUHU216HW,2013-11-17 08:18:00,
2013-11-17 02:23:00,39.8,36.8,29.21,SSW,203,4.9,6.5,89,0.00,,,0.00,WUHU216HW,2013-11-17 08:23:00,
2013-11-17 02:28:00,39.6,36.6,29.21,SSW,203,5.6,6.0,89,0.00,,,0.00,WUHU216HW,2013-11-17 08:28:00,
2013-11-17 02:37:00,39.6,36.6,29.20,SW,225,2.5,5.6,89,0.00,,,0.00,WUHU216HW,2013-11-17 08:37:00,
2013-11-17 02:42:00,39.6,36.6,29.20,SSW,203,6.3,6.3,89,0.00,,,0.00,WUHU216HW,2013-11-17 08:42:00,
2013-11-17 02:47:00,39.6,36.6,29.20,SSW,203,5.4,7.6,89,0.00,,,0.00,WUHU216HW,2013-11-17 08:47:00,
2013-11-17 02:52:00,39.6,36.6,29.20,SSW,203,3.6,7.6,89,0.00,,,0.00,WUHU216HW,2013-11-17 08:52:00,
2013-11-17 02:57:00,39.6,36.6,29.20,SSW,203,6.0,6.0,89,0.00,,,0.00,WUHU216HW,2013-11-17 08:57:00,
2013-11-17 03:02:00,39.2,36.3,29.20,SSW,203,6.7,7.2,89,0.00,,,0.00,WUHU216HW,2013-11-17 09:02:00,
2013-11-17 03:07:00,39.1,36.1,29.20,SSW,203,6.5,7.2,89,0.00,,,0.00,WUHU216HW,2013-11-17 09:07:00,
2013-11-17 03:12:00,39.1,36.4,29.20,SSW,203,6.0,6.9,90,0.00,,,0.00,WUHU216HW,2013-11-17 09:12:00,
2013-11-17 03:17:00,39.1,36.1,29.20,SW,225,5.8,6.9,89,0.00,,,0.00,WUHU216HW,2013-11-17 09:17:00,
2013-11-17 03:22:00,38.9,35.9,29.21,SW,225,7.6,7.6,89,0.00,,,0.00,WUHU216HW,2013-11-17 09:22:00,
2013-11-17 03:27:00,38.9,36.2,29.22,SSW,203,6.9,8.5,90,0.00,,,0.00,WUHU216HW,2013-11-17 09:27:00,
2013-11-17 03:32:00,39.1,36.4,29.22,SW,225,5.6,8.5,90,0.00,,,0.00,WUHU216HW,2013-11-17 09:32:00,
2013-11-17 03:37:00,39.2,36.5,29.23,SSW,203,6.9,7.6,90,0.00,,,0.00,WUHU216HW,2013-11-17 09:37:00,
2013-11-17 03:42:00,39.4,36.7,29.23,SSW,203,9.2,9.2,90,0.00,,,0.00,WUHU216HW,2013-11-17 09:42:00,
2013-11-17 03:47:00,40.0,37.3,29.23,SW,225,8.9,9.2,90,0.00,,,0.00,WUHU216HW,2013-11-17 09:47:00,
2013-11-17 03:52:00,40.1,37.4,29.23,SW,225,8.7,9.8,90,0.00,,,0.00,WUHU216HW,2013-11-17 09:52:00,
2013-11-17 03:57:00,40.3,37.6,29.23,SSW,203,9.4,9.8,90,0.00,,,0.00,WUHU216HW,2013-11-17 09:57:00,
2013-11-17 04:02:00,40.3,37.6,29.23,SW,225,8.5,10.7,90,0.00,,,0.00,WUHU216HW,2013-11-17 10:02:00,
2013-11-17 04:07:00,40.7,38.0,29.24,SW,225,9.6,12.1,90,0.00,,,0.00,WUHU216HW,2013-11-17 10:07:00,
2013-11-17 04:12:00,40.7,38.0,29.24,SSW,203,8.5,12.8,90,0.00,,,0.00,WUHU216HW,2013-11-17 10:12:00,
2013-11-17 04:17:00,40.7,38.0,29.24,WSW,248,9.6,12.8,90,0.00,,,0.00,WUHU216HW,2013-11-17 10:17:00,
2013-11-17 04:22:00,40.7,38.0,29.24,WSW,248,9.4,11.9,90,0.00,,,0.00,WUHU216HW,2013-11-17 10:22:00,
2013-11-17 04:27:00,40.5,37.8,29.24,WSW,248,8.9,11.2,90,0.00,,,0.00,WUHU216HW,2013-11-17 10:27:00,
2013-11-17 04:32:00,40.5,37.8,29.24,SW,225,10.5,12.1,90,0.00,,,0.00,WUHU216HW,2013-11-17 10:32:00,
2013-11-17 04:37:00,40.5,37.8,29.24,WSW,248,9.2,12.1,90,0.00,,,0.00,WUHU216HW,2013-11-17 10:37:00,
2013-11-17 04:42:00,40.7,38.0,29.24,WSW,248,12.5,15.2,90,0.00,,,0.00,WUHU216HW,2013-11-17 10:42:00,
2013-11-17 04:47:00,40.5,38.1,29.23,WSW,248,11.6,15.2,91,0.00,,,0.00,WUHU216HW,2013-11-17 10:47:00,
2013-11-17 04:52:00,40.5,38.1,29.23,West,270,9.4,12.3,91,0.00,,,0.00,WUHU216HW,2013-11-17 10:52:00,
2013-11-17 04:57:00,40.5,38.3,29.23,WSW,248,10.1,12.3,92,0.00,,,0.00,WUHU216HW,2013-11-17 10:57:00,
2013-11-17 05:02:00,40.3,38.2,29.23,WSW,248,7.6,11.4,92,0.00,,,0.00,WUHU216HW,2013-11-17 11:02:00,
2013-11-17 05:07:00,40.5,38.6,29.23,WSW,248,11.4,11.6,93,0.00,,,0.00,WUHU216HW,2013-11-17 11:07:00,
2013-11-17 05:12:00,40.5,38.6,29.23,WSW,248,11.9,12.3,93,0.00,,,0.00,WUHU216HW,2013-11-17 11:12:00,
2013-11-17 05:17:00,40.5,38.6,29.23,WSW,248,11.0,12.3,93,0.00,,,0.00,WUHU216HW,2013-11-17 11:17:00,
2013-11-17 05:22:00,40.5,38.6,29.23,West,270,9.2,11.9,93,0.00,,,0.00,WUHU216HW,2013-11-17 11:22:00,
2013-11-17 05:27:00,40.5,38.6,29.23,West,270,9.4,11.9,93,0.00,,,0.00,WUHU216HW,2013-11-17 11:27:00,
2013-11-17 05:32:00,40.3,38.4,29.23,West,270,9.4,11.6,93,0.00,,,0.00,WUHU216HW,2013-11-17 11:32:00,
2013-11-17 05:37:00,40.3,38.4,29.23,WSW,248,9.2,11.4,93,0.00,,,0.00,WUHU216HW,2013-11-17 11:37:00,
2013-11-17 05:42:00,40.3,38.4,29.23,West,270,9.2,11.4,93,0.00,,,0.00,WUHU216HW,2013-11-17 11:42:00,
2013-11-17 05:47:00,40.3,38.4,29.23,WSW,248,6.5,9.2,93,0.00,,,0.00,WUHU216HW,2013-11-17 11:47:00,
2013-11-17 05:52:00,40.3,38.4,29.22,West,270,9.4,9.4,93,0.00,,,0.00,WUHU216HW,2013-11-17 11:52:00,
2013-11-17 05:57:00,40.3,38.4,29.23,SW,225,5.6,9.4,93,0.00,,,0.00,WUHU216HW,2013-11-17 11:57:00,
2013-11-17 06:02:00,40.3,38.4,29.23,SW,225,7.2,8.9,93,0.00,,,0.00,WUHU216HW,2013-11-17 12:02:00,
2013-11-17 06:07:00,40.1,38.3,29.23,SW,225,7.8,9.4,93,0.00,,,0.00,WUHU216HW,2013-11-17 12:07:00,
2013-11-17 06:12:00,40.0,38.1,29.22,WSW,248,6.9,9.6,93,0.00,,,0.00,WUHU216HW,2013-11-17 12:12:00,
2013-11-17 06:17:00,40.0,38.1,29.22,WSW,248,8.1,9.6,93,0.00,,,0.00,WUHU216HW,2013-11-17 12:17:00,
2013-11-17 06:22:00,40.0,38.1,29.23,WSW,248,8.9,8.9,93,0.00,,,0.00,WUHU216HW,2013-11-17 12:22:00,
2013-11-17 06:27:00,40.0,38.1,29.22,West,270,6.7,8.9,93,0.00,,,0.00,WUHU216HW,2013-11-17 12:27:00,
2013-11-17 06:32:00,40.0,38.1,29.23,WSW,248,9.2,9.2,93,0.00,,,0.00,WUHU216HW,2013-11-17 12:32:00,
2013-11-17 06:37:00,40.0,38.1,29.23,West,270,5.4,9.8,93,0.00,,,0.00,WUHU216HW,2013-11-17 12:37:00,
2013-11-17 06:42:00,40.1,38.3,29.22,WNW,293,8.7,11.4,93,0.00,,,0.00,WUHU216HW,2013-11-17 12:42:00,
2013-11-17 06:47:00,40.3,38.4,29.22,West,270,6.9,11.4,93,0.00,,,0.00,WUHU216HW,2013-11-17 12:47:00,
2013-11-17 06:52:00,40.3,38.7,29.21,West,270,4.9,9.8,94,0.00,,,0.00,WUHU216HW,2013-11-17 12:52:00,
2013-11-17 06:57:00,40.3,38.7,29.22,West,270,6.5,7.8,94,0.00,,,0.00,WUHU216HW,2013-11-17 12:57:00,
2013-11-17 07:02:00,40.5,38.9,29.22,West,270,7.6,9.2,94,0.00,,,0.00,WUHU216HW,2013-11-17 13:02:00,
2013-11-17 07:07:00,40.5,39.2,29.22,West,270,7.2,10.5,95,0.00,,,0.00,WUHU216HW,2013-11-17 13:07:00,
2013-11-17 07:12:00,40.7,39.1,29.22,West,270,7.8,10.5,94,0.00,,,0.00,WUHU216HW,2013-11-17 13:12:00,
2013-11-17 07:17:00,40.9,39.2,29.22,WNW,293,4.7,9.8,94,0.00,,,0.00,WUHU216HW,2013-11-17 13:17:00,
2013-11-17 07:22:00,40.9,39.2,29.22,WNW,293,9.8,9.8,94,0.00,,,0.00,WUHU216HW,2013-11-17 13:22:00,
2013-11-17 07:27:00,41.0,39.4,29.22,West,270,8.5,10.5,94,0.00,,,0.00,WUHU216HW,2013-11-17 13:27:00,
2013-11-17 07:32:00,41.2,39.6,29.23,WSW,248,8.1,10.5,94,0.00,,,0.00,WUHU216HW,2013-11-17 13:32:00,
2013-11-17 07:37:00,41.2,39.3,29.23,West,270,11.2,11.2,93,0.00,,,0.00,WUHU216HW,2013-11-17 13:37:00,
2013-11-17 07:42:00,41.4,39.5,29.23,West,270,8.1,12.1,93,0.00,,,0.00,WUHU216HW,2013-11-17 13:42:00,
2013-11-17 07:47:00,41.4,39.5,29.23,WNW,293,8.9,12.1,93,0.00,,,0.00,WUHU216HW,2013-11-17 13:47:00,
2013-11-17 07:52:00,41.6,39.4,29.24,West,270,8.5,12.1,92,0.00,,,0.00,WUHU216HW,2013-11-17 13:52:00,
2013-11-17 07:57:00,41.8,39.3,29.24,West,270,9.2,12.1,91,0.00,,,0.00,WUHU216HW,2013-11-17 13:57:00,
2013-11-17 08:02:00,41.8,39.3,29.24,WSW,248,9.2,9.2,91,0.00,,,0.00,WUHU216HW,2013-11-17 14:02:00,
2013-11-17 08:07:00,41.8,39.1,29.24,WSW,248,5.4,9.6,90,0.00,,,0.00,WUHU216HW,2013-11-17 14:07:00,
2013-11-17 08:12:00,41.8,39.1,29.24,West,270,5.4,9.8,90,0.00,,,0.00,WUHU216HW,2013-11-17 14:12:00,
2013-11-17 08:17:00,41.9,39.2,29.24,West,270,5.4,9.8,90,0.00,,,0.00,WUHU216HW,2013-11-17 14:17:00,
2013-11-17 08:22:00,41.9,39.2,29.24,West,270,4.9,9.2,90,0.00,,,0.00,WUHU216HW,2013-11-17 14:22:00,
2013-11-17 08:27:00,41.9,39.2,29.25,WNW,293,10.5,10.7,90,0.00,,,0.00,WUHU216HW,2013-11-17 14:27:00,
2013-11-17 08:32:00,41.9,39.0,29.25,West,270,11.4,11.4,89,0.00,,,0.00,WUHU216HW,2013-11-17 14:32:00,
2013-11-17 08:37:00,41.9,39.0,29.25,WSW,248,8.7,11.4,89,0.00,,,0.00,WUHU216HW,2013-11-17 14:37:00,
2013-11-17 08:42:00,41.9,39.0,29.25,NW,315,4.0,11.0,89,0.00,,,0.00,WUHU216HW,2013-11-17 14:42:00,
2013-11-17 08:47:00,41.9,38.6,29.26,North,0,7.6,7.6,88,0.00,,,0.00,WUHU216HW,2013-11-17 14:47:00,
2013-11-17 08:52:00,41.9,38.4,29.26,WSW,248,3.4,8.5,87,0.00,,,0.00,WUHU216HW,2013-11-17 14:52:00,
2013-11-17 08:57:00,41.9,38.4,29.26,West,270,11.0,11.0,87,0.00,,,0.00,WUHU216HW,2013-11-17 14:57:00,
2013-11-17 09:02:00,41.8,38.2,29.27,West,270,10.1,11.0,87,0.00,,,0.00,WUHU216HW,2013-11-17 15:02:00,
2013-11-17 09:07:00,41.8,37.8,29.27,West,270,11.4,12.1,86,0.00,,,0.00,WUHU216HW,2013-11-17 15:07:00,
2013-11-17 09:12:00,41.6,38.0,29.27,West,270,8.5,12.1,87,0.00,,,0.00,WUHU216HW,2013-11-17 15:12:00,
2013-11-17 09:17:00,41.6,37.6,29.27,West,270,6.3,12.5,86,0.00,,,0.00,WUHU216HW,2013-11-17 15:17:00,
2013-11-17 09:22:00,41.6,37.6,29.27,West,270,8.1,12.5,86,0.00,,,0.00,WUHU216HW,2013-11-17 15:22:00,
2013-11-17 09:27:00,41.6,37.6,29.27,WNW,293,5.4,10.7,86,0.00,,,0.00,WUHU216HW,2013-11-17 15:27:00,
2013-11-17 09:32:00,41.6,37.6,29.27,NW,315,6.3,8.5,86,0.00,,,0.00,WUHU216HW,2013-11-17 15:32:00,
2013-11-17 09:37:00,41.6,37.6,29.27,West,270,8.5,8.5,86,0.00,,,0.00,WUHU216HW,2013-11-17 15:37:00,
2013-11-17 09:42:00,41.6,37.6,29.26,NW,315,9.2,11.2,86,0.00,,,0.00,WUHU216HW,2013-11-17 15:42:00,
2013-11-17 09:47:00,41.6,37.6,29.27,West,270,9.2,11.2,86,0.00,,,0.00,WUHU216HW,2013-11-17 15:47:00,
2013-11-17 09:52:00,41.4,37.2,29.27,West,270,8.9,9.2,85,0.00,,,0.00,WUHU216HW,2013-11-17 15:52:00,
2013-11-17 09:57:00,41.4,37.2,29.27,NNW,338,6.7,12.5,85,0.00,,,0.00,WUHU216HW,2013-11-17 15:57:00,
2013-11-17 10:02:00,41.6,37.4,29.28,WNW,293,9.2,12.5,85,0.00,,,0.00,WUHU216HW,2013-11-17 16:02:00,
2013-11-17 10:07:00,41.4,36.9,29.27,NW,315,8.9,15.7,84,0.00,,,0.00,WUHU216HW,2013-11-17 16:07:00,
2013-11-17 10:12:00,41.6,37.4,29.28,NNW,338,6.7,15.7,85,0.00,,,0.00,WUHU216HW,2013-11-17 16:12:00,
2013-11-17 10:17:00,41.6,37.4,29.28,NW,315,10.3,11.4,85,0.00,,,0.00,WUHU216HW,2013-11-17 16:17:00,
2013-11-17 10:22:00,41.8,37.5,29.28,NW,315,8.5,10.3,85,0.00,,,0.00,WUHU216HW,2013-11-17 16:22:00,
2013-11-17 10:27:00,41.9,37.7,29.28,NW,315,6.3,9.2,85,0.00,,,0.00,WUHU216HW,2013-11-17 16:27:00,
2013-11-17 10:32:00,42.1,37.9,29.28,NW,315,6.7,9.2,85,0.00,,,0.00,WUHU216HW,2013-11-17 16:32:00,
2013-11-17 10:37:00,42.7,38.4,29.28,NNW,338,6.7,9.4,85,0.00,,,0.00,WUHU216HW,2013-11-17 16:37:00,
2013-11-17 10:42:00,42.8,38.0,29.28,WNW,293,7.8,11.6,83,0.00,,,0.00,WUHU216HW,2013-11-17 16:42:00,
2013-11-17 10:47:00,43.0,38.2,29.28,West,270,13.2,13.2,83,0.00,,,0.00,WUHU216HW,2013-11-17 16:47:00,
2013-11-17 10:52:00,42.8,37.7,29.29,WNW,293,12.5,13.2,82,0.00,,,0.00,WUHU216HW,2013-11-17 16:52:00,
2013-11-17 10:57:00,43.0,37.9,29.29,WNW,293,9.8,12.8,82,0.00,,,0.00,WUHU216HW,2013-11-17 16:57:00,
2013-11-17 11:02:00,43.2,38.1,29.29,NNW,338,10.5,12.5,82,0.00,,,0.00,WUHU216HW,2013-11-17 17:02:00,
2013-11-17 11:07:00,42.8,37.4,29.29,West,270,13.4,13.4,81,0.00,,,0.00,WUHU216HW,2013-11-17 17:07:00,
2013-11-17 11:12:00,42.8,37.7,29.30,WNW,293,9.8,13.4,82,0.00,,,0.00,WUHU216HW,2013-11-17 17:12:00,
2013-11-17 11:18:00,42.8,37.7,29.29,NW,315,7.8,11.2,82,0.00,,,0.00,WUHU216HW,2013-11-17 17:18:00,
2013-11-17 11:23:00,43.0,37.5,29.30,WNW,293,10.3,13.4,81,0.00,,,0.00,WUHU216HW,2013-11-17 17:23:00,
2013-11-17 11:27:00,43.2,37.7,29.29,WSW,248,7.6,13.4,81,0.00,,,0.00,WUHU216HW,2013-11-17 17:27:00,
2013-11-17 11:32:00,43.7,38.3,29.30,WNW,293,10.3,13.4,81,0.00,,,0.00,WUHU216HW,2013-11-17 17:32:00,
2013-11-17 11:37:00,44.1,38.3,29.30,NW,315,11.6,13.6,80,0.00,,,0.00,WUHU216HW,2013-11-17 17:37:00,
2013-11-17 11:42:00,43.9,38.2,29.30,NW,315,11.6,13.6,80,0.00,,,0.00,WUHU216HW,2013-11-17 17:42:00,
2013-11-17 11:47:00,43.7,38.0,29.30,West,270,9.2,12.8,80,0.00,,,0.00,WUHU216HW,2013-11-17 17:47:00,
2013-11-17 11:52:00,43.6,37.8,29.30,WNW,293,11.2,13.9,80,0.00,,,0.00,WUHU216HW,2013-11-17 17:52:00,
2013-11-17 11:57:00,43.4,37.6,29.30,NW,315,10.1,15.0,80,0.00,,,0.00,WUHU216HW,2013-11-17 17:57:00,
2013-11-17 12:02:00,43.4,37.6,29.30,NW,315,10.1,15.0,80,0.00,,,0.00,WUHU216HW,2013-11-17 18:02:00,
2013-11-17 12:07:00,43.4,37.6,29.30,NW,315,8.7,11.6,80,0.00,,,0.00,WUHU216HW,2013-11-17 18:07:00,
2013-11-17 12:12:00,43.6,37.8,29.30,West,270,8.7,11.6,80,0.00,,,0.00,WUHU216HW,2013-11-17 18:12:00,
2013-11-17 12:17:00,43.6,37.4,29.30,WNW,293,12.8,13.9,79,0.00,,,0.00,WUHU216HW,2013-11-17 18:17:00,
2013-11-17 12:22:00,43.7,37.6,29.30,WNW,293,11.4,13.9,79,0.00,,,0.00,WUHU216HW,2013-11-17 18:22:00,
2013-11-17 12:27:00,43.9,37.8,29.30,NW,315,5.1,12.1,79,0.00,,,0.00,WUHU216HW,2013-11-17 18:27:00,
2013-11-17 12:32:00,43.7,37.6,29.30,NW,315,9.2,12.5,79,0.00,,,0.00,WUHU216HW,2013-11-17 18:32:00,
2013-11-17 12:37:00,44.1,37.7,29.31,NNW,338,13.4,13.4,78,0.00,,,0.00,WUHU216HW,2013-11-17 18:37:00,
2013-11-17 12:42:00,44.3,37.5,29.31,WNW,293,16.1,16.3,77,0.00,,,0.00,WUHU216HW,2013-11-17 18:42:00,
2013-11-17 12:47:00,44.5,37.7,29.31,West,270,13.4,17.4,77,0.00,,,0.00,WUHU216HW,2013-11-17 18:47:00,
2013-11-17 12:52:00,44.6,37.2,29.31,WNW,293,13.0,17.4,75,0.00,,,0.00,WUHU216HW,2013-11-17 18:52:00,
2013-11-17 12:57:00,44.5,37.0,29.32,NW,315,18.3,18.3,75,0.00,,,0.00,WUHU216HW,2013-11-17 18:57:00,
2013-11-17 13:02:00,44.3,36.8,29.32,NW,315,13.2,18.3,75,0.00,,,0.00,WUHU216HW,2013-11-17 19:02:00,
2013-11-17 13:07:00,44.1,36.6,29.32,NW,315,11.4,16.1,75,0.00,,,0.00,WUHU216HW,2013-11-17 19:07:00,
2013-11-17 13:12:00,43.9,36.8,29.32,North,0,11.0,15.9,76,0.00,,,0.00,WUHU216HW,2013-11-17 19:12:00,
2013-11-17 13:17:00,43.9,36.8,29.33,West,270,9.8,15.7,76,0.00,,,0.00,WUHU216HW,2013-11-17 19:17:00,
2013-11-17 13:22:00,43.9,37.2,29.33,WNW,293,6.3,14.8,77,0.00,,,0.00,WUHU216HW,2013-11-17 19:22:00,
2013-11-17 13:27:00,43.6,36.8,29.33,NW,315,8.1,17.9,77,0.00,,,0.00,WUHU216HW,2013-11-17 19:27:00,
2013-11-17 13:32:00,43.7,37.0,29.33,WNW,293,9.4,17.9,77,0.00,,,0.00,WUHU216HW,2013-11-17 19:32:00,
2013-11-17 13:37:00,43.6,36.5,29.34,West,270,18.1,18.1,76,0.00,,,0.00,WUHU216HW,2013-11-17 19:37:00,
2013-11-17 13:42:00,43.6,36.5,29.34,NW,315,12.3,18.1,76,0.00,,,0.00,WUHU216HW,2013-11-17 19:42:00,
2013-11-17 13:47:00,43.6,36.5,29.35,NNW,338,11.4,17.2,76,0.00,,,0.00,WUHU216HW,2013-11-17 19:47:00,
2013-11-17 13:52:00,43.6,36.5,29.35,NW,315,13.9,16.1,76,0.00,,,0.00,WUHU216HW,2013-11-17 19:52:00,
2013-11-17 13:57:00,43.6,36.5,29.35,West,270,14.5,16.8,76,0.00,,,0.00,WUHU216HW,2013-11-17 19:57:00,
2013-11-17 14:02:00,43.2,36.1,29.35,West,270,12.1,16.8,76,0.00,,,0.00,WUHU216HW,2013-11-17 20:02:00,
2013-11-17 14:07:00,43.2,36.1,29.35,WNW,293,13.0,17.0,76,0.00,,,0.00,WUHU216HW,2013-11-17 20:07:00,
2013-11-17 14:12:00,43.0,36.3,29.35,NW,315,15.9,17.0,77,0.00,,,0.00,WUHU216HW,2013-11-17 20:12:00,
2013-11-17 14:17:00,42.8,36.1,29.35,NW,315,18.8,18.8,77,0.00,,,0.00,WUHU216HW,2013-11-17 20:17:00,
2013-11-17 14:22:00,43.2,36.1,29.36,WNW,293,12.1,18.8,76,0.00,,,0.00,WUHU216HW,2013-11-17 20:22:00,
2013-11-17 14:27:00,43.2,35.8,29.36,WNW,293,12.1,16.3,75,0.00,,,0.00,WUHU216HW,2013-11-17 20:27:00,
2013-11-17 14:32:00,43.2,36.1,29.36,NW,315,15.7,16.3,76,0.00,,,0.00,WUHU216HW,2013-11-17 20:32:00,
2013-11-17 14:37:00,43.0,36.3,29.37,West,270,8.7,15.7,77,0.00,,,0.00,WUHU216HW,2013-11-17 20:37:00,
2013-11-17 14:42:00,43.0,36.3,29.37,West,270,6.7,17.2,77,0.00,,,0.00,WUHU216HW,2013-11-17 20:42:00,
2013-11-17 14:47:00,43.0,36.0,29.37,NW,315,16.6,17.2,76,0.00,,,0.00,WUHU216HW,2013-11-17 20:47:00,
2013-11-17 14:52:00,43.2,35.8,29.37,WSW,248,13.2,17.2,75,0.00,,,0.00,WUHU216HW,2013-11-17 20:52:00,
2013-11-17 14:57:00,43.0,36.0,29.38,NW,315,12.8,17.2,76,0.00,,,0.00,WUHU216HW,2013-11-17 20:57:00,
2013-11-17 15:02:00,43.0,35.7,29.38,NW,315,9.2,20.4,75,0.00,,,0.00,WUHU216HW,2013-11-17 21:02:00,
2013-11-17 15:07:00,43.2,35.8,29.39,WNW,293,10.5,20.4,75,0.00,,,0.00,WUHU216HW,2013-11-17 21:07:00,
2013-11-17 15:12:00,43.2,35.5,29.39,West,270,17.2,17.2,74,0.00,,,0.00,WUHU216HW,2013-11-17 21:12:00,
2013-11-17 15:17:00,42.8,34.8,29.40,NNW,338,15.0,17.2,73,0.00,,,0.00,WUHU216HW,2013-11-17 21:17:00,
2013-11-17 15:22:00,42.7,34.9,29.40,WNW,293,14.3,21.9,74,0.00,,,0.00,WUHU216HW,2013-11-17 21:22:00,
2013-11-17 15:27:00,42.7,34.9,29.41,West,270,10.5,21.9,74,0.00,,,0.00,WUHU216HW,2013-11-17 21:27:00,
2013-11-17 15:32:00,42.5,34.7,29.41,WNW,293,13.0,20.6,74,0.00,,,0.00,WUHU216HW,2013-11-17 21:32:00,
2013-11-17 15:37:00,42.3,34.6,29.42,WNW,293,19.0,20.8,74,0.00,,,0.00,WUHU216HW,2013-11-17 21:37:00,
2013-11-17 15:42:00,42.5,35.1,29.42,West,270,10.3,22.1,75,0.00,,,0.00,WUHU216HW,2013-11-17 21:42:00,
2013-11-17 15:47:00,43.0,35.3,29.42,NW,315,11.4,22.1,74,0.00,,,0.00,WUHU216HW,2013-11-17 21:47:00,
2013-11-17 15:52:00,42.8,34.2,29.43,NW,315,18.6,20.8,71,0.00,,,0.00,WUHU216HW,2013-11-17 21:52:00,
2013-11-17 15:57:00,42.1,34.1,29.43,NW,315,17.2,23.5,73,0.00,,,0.00,WUHU216HW,2013-11-17 21:57:00,
2013-11-17 16:02:00,41.8,34.0,29.44,NNW,338,9.4,23.5,74,0.00,,,0.00,WUHU216HW,2013-11-17 22:02:00,
2013-11-17 16:07:00,41.4,34.4,29.44,West,270,8.3,15.0,76,0.00,,,0.00,WUHU216HW,2013-11-17 22:07:00,
2013-11-17 16:12:00,41.8,34.8,29.45,WSW,248,7.6,12.1,76,0.00,,,0.00,WUHU216HW,2013-11-17 22:12:00,
2013-11-17 16:17:00,41.8,35.0,29.45,West,270,5.6,14.3,77,0.00,,,0.00,WUHU216HW,2013-11-17 22:17:00,
2013-11-17 16:22:00,42.1,34.7,29.46,NW,315,11.4,14.3,75,0.00,,,0.00,WUHU216HW,2013-11-17 22:22:00,
2013-11-17 16:27:00,41.6,34.6,29.47,West,270,9.8,16.3,76,0.00,,,0.00,WUHU216HW,2013-11-17 22:27:00,
2013-11-17 16:32:00,40.9,33.9,29.47,WNW,293,9.6,16.3,76,0.00,,,0.00,WUHU216HW,2013-11-17 22:32:00,
2013-11-17 16:37:00,40.3,33.7,29.48,NW,315,19.9,19.9,77,0.00,,,0.00,WUHU216HW,2013-11-17 22:37:00,
2013-11-17 16:42:00,40.0,32.9,29.48,NNW,338,20.8,20.8,76,0.00,,,0.00,WUHU216HW,2013-11-17 22:42:00,
2013-11-17 16:47:00,39.6,32.9,29.48,NW,315,11.0,20.8,77,0.00,,,0.00,WUHU216HW,2013-11-17 22:47:00,
2013-11-17 16:52:00,39.4,32.8,29.49,WSW,248,6.5,17.4,77,0.00,,,0.00,WUHU216HW,2013-11-17 22:52:00,
2013-11-17 16:57:00,39.2,32.9,29.49,NW,315,4.3,14.5,78,0.00,,,0.00,WUHU216HW,2013-11-17 22:57:00,
2013-11-17 17:02:00,39.2,33.3,29.50,WNW,293,9.4,14.8,79,0.00,,,0.00,WUHU216HW,2013-11-17 23:02:00,
2013-11-17 17:07:00,39.2,32.9,29.50,WNW,293,11.2,14.8,78,0.00,,,0.00,WUHU216HW,2013-11-17 23:07:00,
2013-11-17 17:12:00,39.1,32.5,29.50,WNW,293,12.5,16.3,77,0.00,,,0.00,WUHU216HW,2013-11-17 23:12:00,
2013-11-17 17:17:00,38.9,32.0,29.50,WNW,293,23.3,26.8,76,0.00,,,0.00,WUHU216HW,2013-11-17 23:17:00,
2013-11-17 17:22:00,38.7,32.1,29.51,West,270,14.3,26.8,77,0.00,,,0.00,WUHU216HW,2013-11-17 23:22:00,
2013-11-17 17:27:00,38.5,32.0,29.52,NW,315,10.1,23.9,77,0.00,,,0.00,WUHU216HW,2013-11-17 23:27:00,
2013-11-17 17:32:00,38.5,32.0,29.52,WNW,293,23.7,23.7,77,0.00,,,0.00,WUHU216HW,2013-11-17 23:32:00,
2013-11-17 17:37:00,38.3,31.8,29.53,WNW,293,14.1,23.7,77,0.00,,,0.00,WUHU216HW,2013-11-17 23:37:00,
2013-11-17 17:42:00,38.3,31.8,29.53,WNW,293,15.7,19.0,77,0.00,,,0.00,WUHU216HW,2013-11-17 23:42:00,
2013-11-17 17:47:00,37.8,31.2,29.54,NNW,338,14.8,19.7,77,0.00,,,0.00,WUHU216HW,2013-11-17 23:47:00,
2013-11-17 17:52:00,37.6,31.1,29.54,WSW,248,12.5,24.6,77,0.00,,,0.00,WUHU216HW,2013-11-17 23:52:00,
2013-11-17 17:57:00,37.4,30.9,29.54,West,270,8.3,24.6,77,0.00,,,0.00,WUHU216HW,2013-11-17 23:57:00,
2013-11-17 18:02:00,37.3,30.4,29.54,NW,315,17.2,17.9,76,0.00,,,0.00,WUHU216HW,2013-11-18 00:02:00,
2013-11-17 18:07:00,37.1,30.3,29.55,West,270,14.3,17.9,76,0.00,,,0.00,WUHU216HW,2013-11-18 00:07:00,
2013-11-17 18:12:00,36.9,30.3,29.55,NNW,338,9.2,17.9,77,0.00,,,0.00,WUHU216HW,2013-11-18 00:12:00,
2013-11-17 18:17:00,36.9,30.3,29.56,WNW,293,11.4,15.7,77,0.00,,,0.00,WUHU216HW,2013-11-18 00:17:00,
2013-11-17 18:22:00,36.7,30.2,29.57,NW,315,12.5,19.2,77,0.00,,,0.00,WUHU216HW,2013-11-18 00:22:00,
2013-11-17 18:27:00,36.7,30.2,29.57,NW,315,10.5,19.2,77,0.00,,,0.00,WUHU216HW,2013-11-18 00:27:00,
2013-11-17 18:32:00,36.5,30.0,29.57,WNW,293,8.7,16.3,77,0.00,,,0.00,WUHU216HW,2013-11-18 00:32:00,
2013-11-17 18:37:00,36.5,30.0,29.57,NW,315,12.5,16.3,77,0.00,,,0.00,WUHU216HW,2013-11-18 00:37:00,
2013-11-17 18:42:00,36.4,29.8,29.57,NW,315,14.5,14.5,77,0.00,,,0.00,WUHU216HW,2013-11-18 00:42:00,
2013-11-17 18:47:00,36.4,29.8,29.58,West,270,29.5,29.5,77,0.00,,,0.00,WUHU216HW,2013-11-18 00:47:00,
2013-11-17 18:52:00,36.0,29.2,29.58,WNW,293,28.6,29.5,76,0.00,,,0.00,WUHU216HW,2013-11-18 00:52:00,
2013-11-17 18:57:00,35.6,28.8,29.59,West,270,16.3,28.6,76,0.00,,,0.00,WUHU216HW,2013-11-18 00:57:00,
2013-11-17 19:02:00,35.6,28.8,29.59,West,270,11.4,28.6,76,0.00,,,0.00,WUHU216HW,2013-11-18 01:02:00,
2013-11-17 19:07:00,35.5,28.6,29.59,North,0,12.8,28.6,76,0.00,,,0.00,WUHU216HW,2013-11-18 01:07:00,
2013-11-17 19:12:00,35.5,28.6,29.60,West,270,19.5,19.5,76,0.00,,,0.00,WUHU216HW,2013-11-18 01:12:00,
2013-11-17 19:17:00,35.3,28.5,29.60,West,270,11.4,21.5,76,0.00,,,0.00,WUHU216HW,2013-11-18 01:17:00,
2013-11-17 19:22:00,35.3,28.7,29.60,NW,315,13.9,21.5,77,0.00,,,0.00,WUHU216HW,2013-11-18 01:22:00,
2013-11-17 19:27:00,35.1,28.3,29.61,NW,315,18.3,18.3,76,0.00,,,0.00,WUHU216HW,2013-11-18 01:27:00,
2013-11-17 19:32:00,34.9,28.1,29.61,NW,315,20.1,20.1,76,0.00,,,0.00,WUHU216HW,2013-11-18 01:32:00,
2013-11-17 19:37:00,34.9,27.7,29.61,WNW,293,21.5,21.5,75,0.00,,,0.00,WUHU216HW,2013-11-18 01:37:00,
2013-11-17 19:42:00,34.6,27.0,29.61,NW,315,19.5,21.5,74,0.00,,,0.00,WUHU216HW,2013-11-18 01:42:00,
2013-11-17 19:47:00,34.6,27.4,29.61,WNW,293,16.3,21.7,75,0.00,,,0.00,WUHU216HW,2013-11-18 01:47:00,
2013-11-17 19:52:00,34.4,27.2,29.62,WNW,293,9.2,23.5,75,0.00,,,0.00,WUHU216HW,2013-11-18 01:52:00,
2013-11-17 19:57:00,34.4,27.6,29.62,West,270,10.5,23.5,76,0.00,,,0.00,WUHU216HW,2013-11-18 01:57:00,
2013-11-17 20:02:00,34.2,27.4,29.62,NNE,23,10.5,26.8,76,0.00,,,0.00,WUHU216HW,2013-11-18 02:02:00,
2013-11-17 20:07:00,34.2,27.6,29.62,NW,315,15.0,26.8,77,0.00,,,0.00,WUHU216HW,2013-11-18 02:07:00,
2013-11-17 20:12:00,34.2,27.6,29.62,NNW,338,12.1,17.0,77,0.00,,,0.00,WUHU216HW,2013-11-18 02:12:00,
2013-11-17 20:17:00,34.0,27.2,29.62,WNW,293,15.0,21.5,76,0.00,,,0.00,WUHU216HW,2013-11-18 02:17:00,
2013-11-17 20:22:00,34.0,27.2,29.63,West,270,19.5,21.5,76,0.00,,,0.00,WUHU216HW,2013-11-18 02:22:00,
2013-11-17 20:27:00,34.0,26.8,29.63,NNW,338,12.5,20.1,75,0.00,,,0.00,WUHU216HW,2013-11-18 02:27:00,
2013-11-17 20:32:00,34.0,27.2,29.64,WNW,293,17.0,18.3,76,0.00,,,0.00,WUHU216HW,2013-11-18 02:32:00,
2013-11-17 20:37:00,34.0,27.2,29.64,NW,315,7.6,18.3,76,0.00,,,0.00,WUHU216HW,2013-11-18 02:37:00,
2013-11-17 20:42:00,33.8,27.0,29.63,WNW,293,8.5,14.3,76,0.00,,,0.00,WUHU216HW,2013-11-18 02:42:00,
2013-11-17 20:47:00,33.8,26.3,29.63,West,270,11.4,16.3,74,0.00,,,0.00,WUHU216HW,2013-11-18 02:47:00,
2013-11-17 20:52:00,33.8,26.3,29.64,WNW,293,19.7,19.7,74,0.00,,,0.00,WUHU216HW,2013-11-18 02:52:00,
2013-11-17 20:57:00,33.8,26.6,29.64,NNW,338,7.6,19.7,75,0.00,,,0.00,WUHU216HW,2013-11-18 02:57:00,
2013-11-17 21:02:00,33.8,26.6,29.64,NW,315,12.8,13.4,75,0.00,,,0.00,WUHU216HW,2013-11-18 03:02:00,
2013-11-17 21:07:00,33.8,26.6,29.65,NW,315,15.4,15.4,75,0.00,,,0.00,WUHU216HW,2013-11-18 03:07:00,
2013-11-17 21:12:00,33.7,26.8,29.65,West,270,6.9,15.4,76,0.00,,,0.00,WUHU216HW,2013-11-18 03:12:00,
2013-11-17 21:17:00,33.7,26.5,29.65,North,0,8.5,28.9,75,0.00,,,0.00,WUHU216HW,2013-11-18 03:17:00,
2013-11-17 21:22:00,33.7,26.2,29.65,NW,315,12.3,28.9,74,0.00,,,0.00,WUHU216HW,2013-11-18 03:22:00,
2013-11-17 21:27:00,33.7,26.5,29.66,West,270,19.2,19.2,75,0.00,,,0.00,WUHU216HW,2013-11-18 03:27:00,
2013-11-17 21:32:00,33.5,26.3,29.66,NNW,338,11.6,23.5,75,0.00,,,0.00,WUHU216HW,2013-11-18 03:32:00,
2013-11-17 21:37:00,33.5,26.6,29.66,WNW,293,6.9,23.5,76,0.00,,,0.00,WUHU216HW,2013-11-18 03:37:00,
2013-11-17 21:42:00,33.5,26.6,29.66,WNW,293,12.8,14.5,76,0.00,,,0.00,WUHU216HW,2013-11-18 03:42:00,
2013-11-17 21:47:00,33.5,26.6,29.66,WSW,248,17.9,18.3,76,0.00,,,0.00,WUHU216HW,2013-11-18 03:47:00,
2013-11-17 21:52:00,33.3,25.8,29.66,NW,315,23.7,25.3,74,0.00,,,0.00,WUHU216HW,2013-11-18 03:52:00,
2013-11-17 21:57:00,33.1,25.7,29.66,WNW,293,15.9,25.3,74,0.00,,,0.00,WUHU216HW,2013-11-18 03:57:00,
2013-11-17 22:02:00,32.9,25.5,29.67,NW,315,17.2,22.4,74,0.00,,,0.00,WUHU216HW,2013-11-18 04:02:00,
2013-11-17 22:07:00,32.9,25.8,29.67,West,270,14.5,22.4,75,0.00,,,0.00,WUHU216HW,2013-11-18 04:07:00,
2013-11-17 22:12:00,32.9,25.8,29.67,West,270,14.8,17.9,75,0.00,,,0.00,WUHU216HW,2013-11-18 04:12:00,
2013-11-17 22:17:00,32.9,25.8,29.68,NW,315,11.2,15.2,75,0.00,,,0.00,WUHU216HW,2013-11-18 04:17:00,
2013-11-17 22:22:00,32.9,26.2,29.67,NW,315,12.3,15.2,76,0.00,,,0.00,WUHU216HW,2013-11-18 04:22:00,
2013-11-17 22:27:00,32.8,26.0,29.68,West,270,17.2,17.2,76,0.00,,,0.00,WUHU216HW,2013-11-18 04:27:00,
2013-11-17 22:32:00,32.8,25.7,29.68,WNW,293,12.8,17.2,75,0.00,,,0.00,WUHU216HW,2013-11-18 04:32:00,
2013-11-17 22:37:00,32.6,25.2,29.68,WNW,293,15.0,26.6,74,0.00,,,0.00,WUHU216HW,2013-11-18 04:37:00,
2013-11-17 22:42:00,32.6,24.8,29.69,WNW,293,25.3,26.6,73,0.00,,,0.00,WUHU216HW,2013-11-18 04:42:00,
2013-11-17 22:47:00,32.6,24.8,29.69,NW,315,18.1,25.3,73,0.00,,,0.00,WUHU216HW,2013-11-18 04:47:00,
2013-11-17 22:52:00,32.6,24.8,29.69,NW,315,12.5,18.8,73,0.00,,,0.00,WUHU216HW,2013-11-18 04:52:00,
2013-11-17 22:57:00,32.6,25.2,29.69,West,270,5.4,13.4,74,0.00,,,0.00,WUHU216HW,2013-11-18 04:57:00,
2013-11-17 23:01:00,32.6,25.5,29.69,West,270,8.7,16.3,75,0.00,,,0.00,WUHU216HW,2013-11-18 05:01:00,
2013-11-17 23:06:00,32.6,25.8,29.70,NW,315,9.8,23.0,76,0.00,,,0.00,WUHU216HW,2013-11-18 05:06:00,
2013-11-17 23:11:00,32.4,25.7,29.69,SW,225,6.9,23.0,76,0.00,,,0.00,WUHU216HW,2013-11-18 05:11:00,
2013-11-17 23:16:00,32.4,25.7,29.69,WNW,293,11.6,16.6,76,0.00,,,0.00,WUHU216HW,2013-11-18 05:16:00,
2013-11-17 23:21:00,32.4,25.7,29.69,WNW,293,17.2,17.2,76,0.00,,,0.00,WUHU216HW,2013-11-18 05:21:00,
2013-11-17 23:26:00,32.4,25.4,29.69,NNW,338,8.7,17.2,75,0.00,,,0.00,WUHU216HW,2013-11-18 05:26:00,
2013-11-17 23:31:00,32.4,25.0,29.70,WNW,293,12.1,12.8,74,0.00,,,0.00,WUHU216HW,2013-11-18 05:31:00,
2013-11-17 23:36:00,32.2,24.8,29.70,NW,315,15.9,15.9,74,0.00,,,0.00,WUHU216HW,2013-11-18 05:36:00,
2013-11-17 23:41:00,32.2,25.2,29.70,WNW,293,13.0,15.9,75,0.00,,,0.00,WUHU216HW,2013-11-18 05:41:00,
2013-11-17 23:46:00,32.2,25.2,29.70,WNW,293,25.7,25.7,75,0.00,,,0.00,WUHU216HW,2013-11-18 05:46:00,
2013-11-17 23:51:00,32.0,25.0,29.70,West,270,13.2,25.7,75,0.00,,,0.00,WUHU216HW,2013-11-18 05:51:00,
2013-11-17 23:56:00,32.0,24.7,29.70,WNW,293,15.4,19.0,74,0.00,,,0.00,WUHU216HW,2013-11-18 05:56:00,